Time;durP1;ratioP1;P1;durP2;ratioP2;P2;SDS_P1;SDS_P2;PMS_P1;PMS_P2;Temp;Humidity;BMP_temperature;BMP_pressure;BME280_temperature;BME280_humidity;BME280_pressure;Samples;Min_cycle;Max_cycle;Signal;HPM_P1;HPM_P2
2022/07/18 00:02:20;;;;;;;1233.65;997.00;;;20.10;99.90;;;;;;5080810;28;20631;-71
2022/07/18 00:04:45;;;;;;;1197.70;986.25;;;20.10;99.90;;;;;;5049003;28;20224;-71
2022/07/18 00:07:12;;;;;;;1186.68;968.58;;;20.00;99.90;;;;;;5080541;28;20275;-72
2022/07/18 00:09:42;;;;;;;1116.50;910.63;;;20.00;99.90;;;;;;5076139;28;20545;-72
2022/07/18 00:12:10;;;;;;;1062.03;866.80;;;20.00;99.90;;;;;;5075940;28;20259;-72
2022/07/18 00:14:36;;;;;;;993.85;796.45;;;19.90;99.90;;;;;;5060013;28;20293;-72
2022/07/18 00:17:04;;;;;;;991.60;789.80;;;19.90;99.90;;;;;;5087091;28;20652;-72
2022/07/18 00:19:30;;;;;;;954.20;767.03;;;19.90;99.90;;;;;;5079754;28;20191;-71
2022/07/18 00:21:56;;;;;;;897.55;709.15;;;19.90;99.90;;;;;;5069891;28;20711;-71
2022/07/18 00:24:21;;;;;;;794.17;630.95;;;19.90;99.90;;;;;;5085477;28;20200;-71
2022/07/18 00:26:47;;;;;;;766.78;604.63;;;19.90;99.90;;;;;;5064700;28;20264;-71
2022/07/18 00:29:13;;;;;;;1704.85;909.45;;;19.80;99.90;;;;;;5077549;28;20207;-72
2022/07/18 00:31:39;;;;;;;710.03;540.65;;;19.70;99.90;;;;;;5059132;28;20256;-71
2022/07/18 00:34:05;;;;;;;1999.90;999.90;;;19.70;99.90;;;;;;5076134;28;20181;-71
2022/07/18 00:36:31;;;;;;;628.63;481.27;;;19.70;99.90;;;;;;5064831;28;20208;-71
2022/07/18 00:38:58;;;;;;;748.65;577.28;;;19.70;99.90;;;;;;5076562;28;20186;-71
2022/07/18 00:41:24;;;;;;;1690.63;898.60;;;19.60;99.90;;;;;;5075834;28;20181;-71
2022/07/18 00:43:50;;;;;;;674.38;519.80;;;19.60;99.90;;;;;;5067559;28;20284;-71
2022/07/18 00:46:19;;;;;;;655.88;506.63;;;19.50;99.90;;;;;;5073049;28;20665;-71
2022/07/18 00:48:45;;;;;;;1276.22;711.38;;;19.40;99.90;;;;;;5078804;28;20218;-71
2022/07/18 00:51:11;;;;;;;1999.90;999.90;;;19.40;99.90;;;;;;5057665;28;20181;-69
2022/07/18 00:53:37;;;;;;;1999.90;999.90;;;19.40;99.90;;;;;;5081632;28;20180;-71
2022/07/18 00:56:04;;;;;;;1631.38;848.55;;;19.40;99.90;;;;;;5092466;28;20193;-71
2022/07/18 00:58:30;;;;;;;1639.13;854.20;;;19.40;99.90;;;;;;5088202;28;20725;-71
2022/07/18 01:03:41;;;;;;;1999.90;999.90;;;19.20;99.90;;;;;;5082757;28;20247;-71
2022/07/18 01:06:07;;;;;;;1999.90;999.90;;;19.20;99.90;;;;;;5053336;28;20466;-71
2022/07/18 01:08:33;;;;;;;343.33;250.15;;;19.20;99.90;;;;;;5058138;28;20677;-71
2022/07/18 01:10:59;;;;;;;1642.35;857.35;;;19.20;99.90;;;;;;5075740;28;20181;-71
2022/07/18 01:13:24;;;;;;;1999.90;999.90;;;19.10;99.90;;;;;;5066546;28;20187;-70
2022/07/18 01:15:50;;;;;;;1999.90;999.90;;;19.10;99.90;;;;;;5069581;28;20197;-71
2022/07/18 01:18:16;;;;;;;1999.90;999.90;;;19.10;99.90;;;;;;5046453;28;20202;-71
2022/07/18 01:20:42;;;;;;;1999.90;999.90;;;19.10;99.90;;;;;;5088129;28;20260;-73
2022/07/18 01:23:08;;;;;;;1126.70;586.60;;;19.10;99.90;;;;;;5076237;28;20635;-71
2022/07/18 01:25:34;;;;;;;1611.95;833.03;;;19.00;99.90;;;;;;5071661;28;20209;-71
2022/07/18 01:28:00;;;;;;;1174.40;622.00;;;19.10;99.90;;;;;;5066276;28;20307;-71
2022/07/18 01:30:26;;;;;;;1999.90;999.90;;;19.00;99.90;;;;;;5083777;28;20541;-71
2022/07/18 01:32:57;;;;;;;604.30;456.90;;;19.10;99.90;;;;;;5081964;28;20180;-71
2022/07/18 01:35:23;;;;;;;1630.32;850.92;;;19.00;99.90;;;;;;5082017;28;20588;-71
2022/07/18 01:37:53;;;;;;;1624.88;841.42;;;19.00;99.90;;;;;;5064947;28;20181;-71
2022/07/18 01:40:19;;;;;;;1634.75;852.20;;;18.90;99.90;;;;;;5093880;28;20176;-71
2022/07/18 01:42:45;;;;;;;581.75;443.08;;;18.80;99.90;;;;;;5067114;28;20185;-71
2022/07/18 01:45:11;;;;;;;1655.35;869.05;;;18.80;99.90;;;;;;5071756;28;20212;-72
2022/07/18 01:47:36;;;;;;;416.50;312.17;;;18.80;99.90;;;;;;5064218;28;20191;-71
2022/07/18 01:50:03;;;;;;;1632.47;852.53;;;18.80;99.90;;;;;;5085482;28;20189;-72
2022/07/18 01:52:29;;;;;;;473.05;353.95;;;18.80;99.90;;;;;;5075952;28;20229;-71
2022/07/18 01:54:55;;;;;;;516.22;396.20;;;18.70;99.90;;;;;;5083821;28;20540;-72
2022/07/18 01:57:20;;;;;;;781.25;608.30;;;18.70;99.90;;;;;;5088114;28;20582;-72
2022/07/18 01:59:46;;;;;;;1669.38;879.50;;;18.70;99.90;;;;;;5067244;28;20182;-72
2022/07/18 02:02:12;;;;;;;1999.90;999.90;;;18.70;99.90;;;;;;5074660;28;20314;-71
2022/07/18 02:07:38;;;;;;;1157.03;614.83;;;18.60;99.90;;;;;;5039024;28;20181;-72
2022/07/18 02:10:18;;;;;;;1620.72;841.03;;;18.60;99.90;;;;;;5076103;28;20313;-72
2022/07/18 02:12:44;;;;;;;1589.85;816.75;;;18.50;99.90;;;;;;5080020;28;20222;-72
2022/07/18 02:15:12;;;;;;;1999.90;999.90;;;18.50;99.90;;;;;;5075856;28;20246;-72
2022/07/18 02:17:38;;;;;;;1999.90;999.90;;;18.50;99.90;;;;;;5064024;28;20185;-72
2022/07/18 02:20:09;;;;;;;1657.38;869.47;;;18.50;99.90;;;;;;5062802;28;20536;-72
2022/07/18 02:22:35;;;;;;;1999.90;999.90;;;18.40;99.90;;;;;;5074736;28;20173;-72
2022/07/18 02:25:01;;;;;;;1627.30;843.72;;;18.30;99.90;;;;;;5056801;28;20228;-71
2022/07/18 02:27:26;;;;;;;449.25;331.55;;;18.20;99.90;;;;;;5070803;28;20187;-72
2022/07/18 02:29:52;;;;;;;1646.13;862.58;;;18.20;99.90;;;;;;5089915;28;20177;-71
2022/07/18 02:32:18;;;;;;;1650.35;864.63;;;18.30;99.90;;;;;;5048458;28;20192;-71
2022/07/18 02:34:44;;;;;;;631.03;483.98;;;18.30;99.90;;;;;;5076363;28;20189;-71
2022/07/18 02:37:10;;;;;;;492.73;369.77;;;18.20;99.90;;;;;;5091097;28;20666;-73
2022/07/18 02:39:36;;;;;;;1658.88;872.42;;;18.10;99.90;;;;;;5086948;28;20185;-72
2022/07/18 02:42:02;;;;;;;611.22;457.60;;;18.10;99.90;;;;;;5075176;28;20184;-72
2022/07/18 02:44:28;;;;;;;698.83;544.28;;;18.00;99.90;;;;;;5055614;28;20227;-72
2022/07/18 02:46:54;;;;;;;714.45;567.10;;;18.10;99.90;;;;;;5065036;28;20189;-71
2022/07/18 02:49:28;;;;;;;775.35;615.05;;;18.20;99.90;;;;;;5077376;28;20698;-71
2022/07/18 02:51:54;;;;;;;799.45;634.25;;;18.20;99.90;;;;;;5057701;28;20184;-72
2022/07/18 02:54:21;;;;;;;741.25;582.25;;;18.10;99.90;;;;;;5075210;28;20642;-72
2022/07/18 02:56:47;;;;;;;744.47;584.60;;;18.10;99.90;;;;;;5063662;28;20189;-72
2022/07/18 02:59:12;;;;;;;780.45;614.17;;;18.00;99.90;;;;;;5093265;28;20199;-71
2022/07/18 03:01:38;;;;;;;865.13;681.45;;;18.00;99.90;;;;;;5057839;28;20177;-72
2022/07/18 03:04:04;;;;;;;813.28;631.97;;;18.00;99.90;;;;;;5073845;28;20653;-72
2022/07/18 03:06:29;;;;;;;730.10;573.03;;;17.90;99.90;;;;;;5063023;28;20228;-72
2022/07/18 03:08:55;;;;;;;678.63;516.33;;;17.80;99.90;;;;;;5082116;28;20196;-75
2022/07/18 03:11:21;;;;;;;512.10;393.70;;;17.80;99.90;;;;;;5056931;28;20283;-74
2022/07/18 03:13:47;;;;;;;580.63;439.02;;;17.90;99.90;;;;;;5028297;28;20235;-75
2022/07/18 03:16:13;;;;;;;1648.70;862.22;;;17.80;99.90;;;;;;5056520;28;20216;-73
2022/07/18 03:18:39;;;;;;;1233.40;675.53;;;17.70;99.90;;;;;;5069325;28;20220;-73
2022/07/18 03:21:04;;;;;;;592.42;458.00;;;17.60;99.90;;;;;;5053674;28;20205;-73
2022/07/18 03:23:30;;;;;;;582.42;443.60;;;17.60;99.90;;;;;;5072889;28;20611;-73
2022/07/18 03:25:56;;;;;;;1221.03;662.15;;;17.60;99.90;;;;;;5072402;28;20224;-75
2022/07/18 03:28:22;;;;;;;1999.90;999.90;;;17.70;99.90;;;;;;5046587;28;20187;-74
2022/07/18 03:30:47;;;;;;;1615.65;835.40;;;17.60;99.90;;;;;;5073237;28;20180;-74
2022/07/18 03:33:13;;;;;;;1632.50;850.25;;;17.60;99.90;;;;;;5080544;28;20276;-74
2022/07/18 03:35:38;;;;;;;1274.53;708.92;;;17.50;99.90;;;;;;5091086;28;20189;-74
2022/07/18 03:38:05;;;;;;;720.80;557.25;;;17.50;99.90;;;;;;5060971;28;20672;-74
2022/07/18 03:40:30;;;;;;;611.95;460.20;;;17.50;99.90;;;;;;5074112;28;20529;-74
2022/07/18 03:42:56;;;;;;;704.38;545.33;;;17.40;99.90;;;;;;5067692;28;20207;-74
2022/07/18 03:45:22;;;;;;;673.15;510.02;;;17.40;99.90;;;;;;5034610;28;20583;-71
2022/07/18 03:47:47;;;;;;;1999.90;999.90;;;17.40;99.90;;;;;;5070457;28;20176;-72
2022/07/18 03:50:13;;;;;;;1999.90;999.90;;;17.40;99.90;;;;;;5082256;28;20268;-73
2022/07/18 03:52:39;;;;;;;1999.90;999.90;;;17.50;99.90;;;;;;5083710;28;20177;-72
2022/07/18 03:55:05;;;;;;;1627.40;844.88;;;17.50;99.90;;;;;;5075288;28;20303;-73
2022/07/18 03:57:31;;;;;;;1999.90;999.90;;;17.50;99.90;;;;;;5056960;28;20264;-73
2022/07/18 03:59:56;;;;;;;1581.20;809.38;;;17.50;99.90;;;;;;5065764;28;20602;-73
2022/07/18 04:02:22;;;;;;;1999.90;999.90;;;17.50;99.90;;;;;;5074496;28;20531;-73
2022/07/18 04:04:47;;;;;;;1999.90;999.90;;;17.50;99.90;;;;;;5070211;28;20260;-73
2022/07/18 04:07:13;;;;;;;1999.90;999.90;;;17.50;99.90;;;;;;5064095;28;20552;-73
2022/07/18 04:09:39;;;;;;;1999.90;999.90;;;17.60;99.90;;;;;;5076803;28;20208;-72
2022/07/18 04:12:04;;;;;;;1999.90;999.90;;;17.60;99.90;;;;;;5069241;28;20185;-72
2022/07/18 04:14:30;;;;;;;1999.90;999.90;;;17.70;99.90;;;;;;5085676;28;20230;-74
2022/07/18 04:16:56;;;;;;;1999.90;999.90;;;17.70;99.90;;;;;;5070312;28;20193;-72
2022/07/18 04:19:23;;;;;;;1999.90;999.90;;;17.80;99.90;;;;;;5091571;28;20181;-72
2022/07/18 04:21:48;;;;;;;1999.90;999.90;;;17.70;99.90;;;;;;5060598;28;20544;-73
2022/07/18 04:24:14;;;;;;;1999.90;999.90;;;17.80;99.90;;;;;;5085913;28;20272;-73
2022/07/18 04:26:40;;;;;;;1999.90;999.90;;;17.80;99.90;;;;;;5066690;28;20195;-73
2022/07/18 04:29:06;;;;;;;1999.90;999.90;;;17.80;99.90;;;;;;5055506;28;20185;-73
2022/07/18 04:31:32;;;;;;;1999.90;999.90;;;17.80;99.90;;;;;;5072721;28;20209;-74
2022/07/18 04:33:57;;;;;;;1999.90;999.90;;;17.70;99.90;;;;;;5082655;28;20187;-74
2022/07/18 04:36:24;;;;;;;1999.90;999.90;;;17.70;99.90;;;;;;5080574;28;20709;-74
2022/07/18 04:38:50;;;;;;;1999.90;999.90;;;17.80;99.90;;;;;;5068612;28;20276;-74
2022/07/18 04:41:16;;;;;;;1999.90;999.90;;;17.90;99.90;;;;;;5088318;28;20293;-73
2022/07/18 04:43:42;;;;;;;1999.90;999.90;;;18.00;99.90;;;;;;5050685;28;20541;-73
2022/07/18 04:46:08;;;;;;;1999.90;999.90;;;18.10;99.90;;;;;;5080410;28;20205;-73
2022/07/18 04:48:34;;;;;;;1999.90;999.90;;;18.10;99.90;;;;;;5055087;28;20254;-74
2022/07/18 04:50:59;;;;;;;1999.90;999.90;;;18.20;99.90;;;;;;5068736;28;20275;-74
2022/07/18 04:53:25;;;;;;;1999.90;999.90;;;18.30;99.90;;;;;;5088933;28;20330;-73
2022/07/18 04:55:51;;;;;;;1999.90;999.90;;;18.30;99.90;;;;;;5071878;28;20216;-73
2022/07/18 04:58:16;;;;;;;1999.90;999.90;;;18.40;99.90;;;;;;5065058;28;20196;-74
2022/07/18 05:00:42;;;;;;;1999.90;999.90;;;18.50;99.90;;;;;;5065348;28;20544;-73
2022/07/18 05:03:08;;;;;;;1999.90;999.90;;;18.60;99.90;;;;;;5076175;28;20188;-74
2022/07/18 05:05:33;;;;;;;1999.90;999.90;;;18.50;99.90;;;;;;5090593;28;20312;-74
2022/07/18 05:07:59;;;;;;;1999.90;999.90;;;18.50;99.90;;;;;;5082407;28;20185;-73
2022/07/18 05:10:25;;;;;;;1999.90;999.90;;;18.50;99.90;;;;;;5047911;28;20181;-73
2022/07/18 05:12:52;;;;;;;1999.90;999.90;;;18.50;99.90;;;;;;5058422;28;20189;-74
2022/07/18 05:15:21;;;;;;;1999.90;999.90;;;18.70;99.90;;;;;;5064694;28;20194;-73
2022/07/18 05:17:47;;;;;;;1999.90;999.90;;;18.70;99.90;;;;;;5091029;28;20177;-74
2022/07/18 05:20:16;;;;;;;1999.90;999.90;;;18.70;99.90;;;;;;5079917;28;20189;-73
2022/07/18 05:22:43;;;;;;;1999.90;999.90;;;18.80;99.90;;;;;;5089341;28;20172;-73
2022/07/18 05:25:09;;;;;;;1999.90;999.90;;;18.80;99.90;;;;;;5094092;28;20235;-73
2022/07/18 05:27:35;;;;;;;1999.90;999.90;;;18.90;99.90;;;;;;5088222;28;20189;-74
2022/07/18 05:30:03;;;;;;;1999.90;999.90;;;19.00;99.90;;;;;;5071655;28;20535;-74
2022/07/18 05:32:29;;;;;;;1999.90;999.90;;;19.20;99.90;;;;;;5074317;28;20181;-73
2022/07/18 05:34:55;;;;;;;1999.90;999.90;;;19.10;99.90;;;;;;5094392;28;20219;-74
2022/07/18 05:37:20;;;;;;;1999.90;999.90;;;19.20;99.90;;;;;;5078047;28;20191;-73
2022/07/18 05:39:46;;;;;;;1999.90;999.90;;;19.30;99.90;;;;;;5083517;28;20184;-73
2022/07/18 05:42:12;;;;;;;1999.90;999.90;;;19.50;99.90;;;;;;5092151;28;20621;-72
2022/07/18 05:44:38;;;;;;;1999.90;999.90;;;19.50;99.90;;;;;;5065413;28;20295;-74
2022/07/18 05:47:03;;;;;;;1999.90;999.90;;;19.60;99.90;;;;;;5093856;28;20271;-73
2022/07/18 05:49:29;;;;;;;1999.90;999.90;;;19.70;99.90;;;;;;5088375;28;20269;-73
2022/07/18 05:51:55;;;;;;;1999.90;999.90;;;19.80;99.90;;;;;;5083288;28;20227;-73
2022/07/18 05:54:21;;;;;;;1999.90;999.90;;;20.00;99.90;;;;;;5057951;28;20181;-73
2022/07/18 05:56:48;;;;;;;1999.90;999.90;;;20.10;99.90;;;;;;5081367;28;20660;-73
2022/07/18 05:59:14;;;;;;;1999.90;999.90;;;20.20;99.90;;;;;;5075083;28;20203;-73
2022/07/18 06:01:40;;;;;;;1999.90;999.90;;;20.40;99.90;;;;;;5088290;28;20185;-73
2022/07/18 06:04:06;;;;;;;1999.90;999.90;;;20.60;99.90;;;;;;5080749;28;20217;-73
2022/07/18 06:06:31;;;;;;;1999.90;999.90;;;20.70;99.90;;;;;;5078044;28;20244;-73
2022/07/18 06:08:57;;;;;;;1999.90;999.90;;;20.90;99.90;;;;;;5091533;28;20176;-74
2022/07/18 06:11:23;;;;;;;1999.90;999.90;;;21.00;99.90;;;;;;5076811;28;20642;-73
2022/07/18 06:13:49;;;;;;;1999.90;999.90;;;21.10;99.90;;;;;;5065749;28;20188;-73
2022/07/18 06:16:14;;;;;;;1999.90;999.90;;;21.30;99.90;;;;;;5085190;28;20192;-73
2022/07/18 06:18:40;;;;;;;1999.90;999.90;;;21.50;99.90;;;;;;5085082;28;20696;-73
2022/07/18 06:21:06;;;;;;;1999.90;999.90;;;21.50;99.90;;;;;;5072605;28;20207;-73
2022/07/18 06:23:32;;;;;;;1999.90;999.90;;;21.60;99.90;;;;;;5058368;28;20189;-73
2022/07/18 06:25:58;;;;;;;1999.90;999.90;;;21.70;99.90;;;;;;5077349;28;20243;-73
2022/07/18 06:28:25;;;;;;;1999.90;999.90;;;21.90;99.90;;;;;;5058355;28;20181;-73
2022/07/18 06:30:51;;;;;;;1999.90;999.90;;;22.10;99.90;;;;;;5091604;28;20510;-73
2022/07/18 06:33:17;;;;;;;1999.90;999.90;;;22.30;99.90;;;;;;5082722;28;20193;-73
2022/07/18 06:35:43;;;;;;;1999.90;999.90;;;22.40;99.90;;;;;;5076276;28;20193;-74
2022/07/18 06:38:08;;;;;;;1999.90;999.90;;;22.60;99.90;;;;;;5076210;28;20209;-73
2022/07/18 06:40:34;;;;;;;1999.90;999.90;;;22.80;99.90;;;;;;5069809;28;20239;-73
2022/07/18 06:43:00;;;;;;;1999.90;999.90;;;22.90;99.90;;;;;;5074188;28;20304;-74
2022/07/18 06:45:25;;;;;;;1999.90;999.90;;;23.00;99.90;;;;;;5083961;28;20224;-73
2022/07/18 06:47:51;;;;;;;1999.90;999.90;;;23.20;99.90;;;;;;5052170;28;20318;-73
2022/07/18 06:50:17;;;;;;;1999.90;999.90;;;23.40;99.90;;;;;;5083368;28;20212;-73
2022/07/18 06:52:44;;;;;;;1999.90;999.90;;;23.50;99.90;;;;;;5087509;28;20624;-73
2022/07/18 06:55:11;;;;;;;1999.90;999.90;;;23.60;99.90;;;;;;5074953;28;20189;-73
2022/07/18 06:57:38;;;;;;;1999.90;999.90;;;23.70;99.90;;;;;;5090235;28;20192;-73
2022/07/18 07:00:05;;;;;;;1999.90;999.90;;;23.80;99.90;;;;;;5072826;28;20183;-74
2022/07/18 07:02:31;;;;;;;1999.90;999.90;;;24.00;99.90;;;;;;5082762;28;20186;-73
2022/07/18 07:04:56;;;;;;;1999.90;999.90;;;24.30;99.90;;;;;;5066575;28;20701;-74
2022/07/18 07:07:22;;;;;;;1999.90;999.90;;;24.50;99.90;;;;;;5073649;28;20189;-74
2022/07/18 07:09:48;;;;;;;1999.90;999.90;;;24.80;99.90;;;;;;5060248;28;20280;-73
2022/07/18 07:12:13;;;;;;;1999.90;999.90;;;25.50;99.90;;;;;;5073427;28;20221;-73
2022/07/18 07:14:39;;;;;;;1999.90;999.90;;;27.00;99.90;;;;;;5092085;28;20536;-74
2022/07/18 07:17:05;;;;;;;1639.53;859.22;;;29.30;99.90;;;;;;5089341;28;20275;-75
2022/07/18 07:19:31;;;;;;;1436.88;866.30;;;31.60;99.90;;;;;;5090225;28;20190;-73
2022/07/18 07:21:56;;;;;;;1054.07;920.95;;;33.00;99.90;;;;;;5079795;28;20260;-74
2022/07/18 07:24:22;;;;;;;1129.40;996.08;;;34.30;99.90;;;;;;5082537;28;20188;-74
2022/07/18 07:26:48;;;;;;;1219.55;999.90;;;35.40;99.90;;;;;;5051308;28;20192;-73
2022/07/18 07:29:15;;;;;;;1232.32;999.90;;;36.00;99.70;;;;;;5075205;28;20207;-74
2022/07/18 07:31:42;;;;;;;1235.90;999.90;;;35.70;99.30;;;;;;5069809;28;20195;-74
2022/07/18 07:34:09;;;;;;;1249.40;999.90;;;35.70;98.80;;;;;;5059330;28;20191;-74
2022/07/18 07:36:34;;;;;;;1261.32;999.90;;;35.60;97.00;;;;;;5081762;28;20234;-73
2022/07/18 07:39:00;;;;;;;1257.20;999.90;;;35.50;97.40;;;;;;5055661;28;20564;-74
2022/07/18 07:41:26;;;;;;;1243.38;999.90;;;35.50;96.90;;;;;;5077330;28;20275;-74
2022/07/18 07:43:52;;;;;;;1239.28;999.90;;;35.90;96.70;;;;;;5062124;28;20206;-73
2022/07/18 07:46:18;;;;;;;1246.75;999.90;;;36.10;95.90;;;;;;5078331;28;20200;-74
2022/07/18 07:48:43;;;;;;;1250.97;999.90;;;36.90;95.80;;;;;;5061758;28;20647;-74
2022/07/18 07:51:09;;;;;;;1250.70;999.90;;;37.10;94.80;;;;;;5072631;28;20185;-74
2022/07/18 07:53:35;;;;;;;1274.03;999.90;;;38.10;94.10;;;;;;5082198;28;20205;-74
2022/07/18 07:56:02;;;;;;;1270.30;999.90;;;38.40;93.40;;;;;;5071506;28;20549;-73
2022/07/18 07:58:27;;;;;;;1280.80;999.90;;;38.20;93.50;;;;;;5074212;28;20184;-73
2022/07/18 08:00:53;;;;;;;1281.68;999.90;;;38.10;93.30;;;;;;5091327;28;20191;-73
2022/07/18 08:03:19;;;;;;;1292.65;999.90;;;37.80;92.80;;;;;;5081896;28;20195;-73
2022/07/18 08:05:48;;;;;;;1291.93;999.90;;;37.50;92.70;;;;;;5072735;28;20287;-73
2022/07/18 08:08:14;;;;;;;1293.30;999.90;;;36.90;92.70;;;;;;5078902;28;20527;-73
2022/07/18 08:10:40;;;;;;;1288.63;999.90;;;37.60;92.80;;;;;;5062938;28;20199;-73
2022/07/18 08:13:06;;;;;;;1295.55;999.90;;;38.40;92.70;;;;;;5088717;28;20192;-74
2022/07/18 08:15:32;;;;;;;1317.22;999.90;;;37.90;91.50;;;;;;5049310;28;20206;-74
2022/07/18 08:17:58;;;;;;;1317.78;999.90;;;37.70;91.80;;;;;;5061664;28;20186;-73
2022/07/18 08:20:24;;;;;;;1306.10;999.90;;;37.30;92.40;;;;;;5072009;28;20180;-73
2022/07/18 08:23:04;;;;;;;1311.65;999.90;;;37.60;92.80;;;;;;5087066;28;20187;-73
2022/07/18 08:25:32;;;;;;;1301.35;999.90;;;38.30;92.20;;;;;;5089400;28;20209;-73
2022/07/18 08:27:59;;;;;;;1305.78;999.90;;;38.40;91.20;;;;;;5089320;28;20555;-73
2022/07/18 08:30:25;;;;;;;1303.30;999.90;;;39.20;91.60;;;;;;5089863;28;20222;-73
2022/07/18 08:32:51;;;;;;;1311.15;999.90;;;39.40;90.90;;;;;;5075906;28;20183;-73
2022/07/18 08:35:17;;;;;;;1301.95;999.90;;;39.40;91.10;;;;;;5058519;28;20193;-73
2022/07/18 08:37:43;;;;;;;1301.65;999.90;;;39.80;90.70;;;;;;5073595;28;20267;-73
2022/07/18 08:40:09;;;;;;;1293.18;999.90;;;40.30;90.20;;;;;;5075484;28;20272;-73
2022/07/18 08:42:35;;;;;;;1305.25;999.90;;;39.90;89.50;;;;;;5072815;28;20211;-74
2022/07/18 08:45:03;;;;;;;1311.88;999.90;;;40.00;89.70;;;;;;5074707;28;20204;-73
2022/07/18 08:47:30;;;;;;;1318.97;999.90;;;39.30;89.00;;;;;;5076814;28;20230;-72
2022/07/18 08:49:56;;;;;;;1314.57;999.90;;;38.30;90.30;;;;;;5073391;28;20203;-72
2022/07/18 08:52:23;;;;;;;1322.57;999.90;;;38.00;90.70;;;;;;5087316;28;20203;-72
2022/07/18 08:54:48;;;;;;;1318.38;999.90;;;38.30;90.70;;;;;;5064153;28;20191;-71
2022/07/18 08:57:15;;;;;;;1319.22;999.90;;;38.30;90.50;;;;;;5083046;28;20184;-72
2022/07/18 08:59:41;;;;;;;1324.38;999.90;;;38.50;90.30;;;;;;5075647;28;20185;-73
2022/07/18 09:02:10;;;;;;;1319.28;999.90;;;38.70;90.30;;;;;;5076853;28;20558;-72
2022/07/18 09:04:36;;;;;;;1320.53;999.90;;;38.70;90.10;;;;;;5082350;28;20582;-72
2022/07/18 09:07:03;;;;;;;1315.85;999.90;;;38.80;89.10;;;;;;5081207;28;20185;-72
2022/07/18 09:09:29;;;;;;;1306.60;999.90;;;39.50;90.20;;;;;;5071559;28;20270;-72
2022/07/18 09:11:59;;;;;;;1295.50;999.90;;;40.20;88.90;;;;;;5076125;28;20205;-73
2022/07/18 09:14:38;;;;;;;1295.45;999.90;;;40.70;88.10;;;;;;5089065;28;20203;-72
2022/07/18 09:17:19;;;;;;;1292.00;999.90;;;41.10;87.70;;;;;;5076191;28;20282;-73
2022/07/18 09:20:04;;;;;;;1294.30;999.90;;;41.50;88.10;;;;;;5090755;28;20176;-73
2022/07/18 09:22:35;;;;;;;1287.32;999.90;;;41.70;86.50;;;;;;5086249;28;20254;-72
2022/07/18 09:25:12;;;;;;;1283.20;999.90;;;41.70;85.10;;;;;;5082540;28;20573;-71
2022/07/18 09:27:41;;;;;;;1291.90;999.90;;;41.30;84.60;;;;;;5075541;28;20198;-72
2022/07/18 09:30:35;;;;;;;1293.97;999.90;;;41.20;83.20;;;;;;5088498;28;20193;-72
2022/07/18 09:33:03;;;;;;;1290.95;999.90;;;40.60;84.10;;;;;;5050086;28;20185;-72
2022/07/18 09:35:34;;;;;;;1288.15;999.90;;;40.60;85.70;;;;;;5077864;28;20812;-72
2022/07/18 09:38:07;;;;;;;1292.28;999.90;;;40.00;84.10;;;;;;5068009;28;20183;-72
2022/07/18 09:40:35;;;;;;;1302.90;999.90;;;38.90;83.60;;;;;;5079616;28;20519;-72
2022/07/18 09:43:04;;;;;;;1312.55;999.90;;;38.00;85.20;;;;;;5068171;28;20184;-72
2022/07/18 09:45:34;;;;;;;1310.35;999.90;;;37.10;84.60;;;;;;5079688;28;20204;-72
2022/07/18 09:48:02;;;;;;;1313.40;999.90;;;36.30;87.40;;;;;;5088449;28;20644;-72
2022/07/18 09:50:30;;;;;;;1305.80;999.90;;;35.70;87.90;;;;;;5075467;28;20182;-72
2022/07/18 09:52:58;;;;;;;1308.93;999.90;;;35.20;87.20;;;;;;5068146;28;20415;-72
2022/07/18 09:55:24;;;;;;;1306.47;999.90;;;34.70;87.80;;;;;;5090223;28;20179;-72
2022/07/18 09:58:05;;;;;;;1312.32;999.90;;;34.50;89.40;;;;;;5069730;28;20200;-69
2022/07/18 10:00:34;;;;;;;1310.13;999.90;;;34.40;89.60;;;;;;5064653;28;20187;-69
2022/07/18 10:03:01;;;;;;;1303.13;999.90;;;34.20;89.50;;;;;;5077750;28;20188;-69
2022/07/18 10:05:28;;;;;;;1302.13;999.90;;;33.90;90.10;;;;;;5065668;28;20224;-69
2022/07/18 10:07:54;;;;;;;1306.78;999.90;;;33.80;90.50;;;;;;5086611;28;20184;-70
2022/07/18 10:10:24;;;;;;;1303.85;999.90;;;33.80;90.00;;;;;;5071523;28;20191;-69
2022/07/18 10:12:53;;;;;;;1299.95;999.90;;;33.70;90.00;;;;;;5061573;28;20580;-69
2022/07/18 10:15:22;;;;;;;1312.38;999.90;;;33.50;90.30;;;;;;5079571;28;20205;-69
2022/07/18 10:17:47;;;;;;;1307.97;999.90;;;33.50;90.20;;;;;;5077989;28;20185;-67
2022/07/18 10:20:13;;;;;;;1308.25;999.90;;;33.60;90.80;;;;;;5083943;28;20215;-70
2022/07/18 10:22:43;;;;;;;1307.38;999.90;;;33.50;91.40;;;;;;5084580;28;20183;-71
2022/07/18 10:25:11;;;;;;;1306.78;999.90;;;33.40;90.80;;;;;;5083088;28;20211;-74
2022/07/18 10:28:16;;;;;;;1311.72;999.90;;;33.30;91.40;;;;;;5062308;28;20262;-70
2022/07/18 10:30:44;;;;;;;1310.88;999.90;;;33.30;91.20;;;;;;4992450;28;20190;-72
2022/07/18 10:33:41;;;;;;;1308.10;999.90;;;33.30;90.40;;;;;;4998128;28;20238;-75
2022/07/18 10:36:09;;;;;;;1309.85;999.90;;;33.20;90.20;;;;;;5045457;28;20200;-78
2022/07/18 10:38:36;;;;;;;1312.03;999.90;;;33.20;91.40;;;;;;5064877;28;20253;-71
2022/07/18 10:41:13;;;;;;;1313.07;999.90;;;33.40;91.50;;;;;;5080474;28;20267;-72
2022/07/18 10:43:41;;;;;;;1302.72;999.90;;;33.40;90.70;;;;;;5077047;28;20577;-72
2022/07/18 10:46:09;;;;;;;1307.03;999.90;;;33.30;91.10;;;;;;5081657;28;20219;-73
2022/07/18 10:48:37;;;;;;;1313.53;999.90;;;33.30;91.90;;;;;;5081685;28;20176;-72
2022/07/18 10:51:11;;;;;;;1314.78;999.90;;;33.40;91.10;;;;;;5078542;28;20180;-72
2022/07/18 10:53:58;;;;;;;1314.85;999.90;;;33.30;90.70;;;;;;5083723;28;20267;-71
2022/07/18 10:56:35;;;;;;;1318.00;999.90;;;33.30;91.00;;;;;;5080832;28;20175;-74
2022/07/18 10:59:15;;;;;;;1313.65;999.90;;;33.20;90.60;;;;;;5059676;28;20477;-74
2022/07/18 11:01:49;;;;;;;1306.65;999.90;;;33.00;89.60;;;;;;5077391;28;20206;-77
2022/07/18 11:04:36;;;;;;;1309.55;999.90;;;33.00;91.10;;;;;;5073876;28;20195;-74
2022/07/18 11:07:14;;;;;;;1306.30;999.90;;;33.20;90.20;;;;;;5060359;28;20539;-73
2022/07/18 11:09:48;;;;;;;1306.88;999.90;;;33.10;89.40;;;;;;5089147;28;20250;-72
2022/07/18 11:12:19;;;;;;;1307.90;999.90;;;33.30;90.60;;;;;;5074203;28;20183;-73
2022/07/18 11:15:12;;;;;;;1311.97;999.90;;;33.30;90.00;;;;;;5087497;28;20585;-72
2022/07/18 11:17:56;;;;;;;1308.07;999.90;;;33.30;91.30;;;;;;5089849;28;20194;-72
2022/07/18 11:20:33;;;;;;;1304.68;999.90;;;33.20;90.10;;;;;;5083028;28;20192;-72
2022/07/18 11:23:01;;;;;;;1309.03;999.90;;;33.30;90.30;;;;;;5082635;28;20275;-73
2022/07/18 11:25:29;;;;;;;1306.90;999.90;;;33.20;90.00;;;;;;5084102;28;20216;-72
2022/07/18 11:27:56;;;;;;;1310.10;999.90;;;33.30;90.00;;;;;;5077805;28;20172;-74
2022/07/18 11:30:23;;;;;;;1320.60;999.90;;;33.30;89.40;;;;;;5065141;28;20192;-73
2022/07/18 11:32:50;;;;;;;1325.22;999.90;;;33.00;88.70;;;;;;5066068;28;20225;-72
2022/07/18 11:35:22;;;;;;;1318.20;999.90;;;33.00;87.60;;;;;;5063692;28;20271;-73
2022/07/18 11:37:49;;;;;;;1324.72;999.90;;;32.80;89.00;;;;;;5088197;28;20530;-71
2022/07/18 11:40:15;;;;;;;1319.47;999.90;;;32.90;89.10;;;;;;5073602;28;20187;-72
2022/07/18 11:42:41;;;;;;;1326.65;999.90;;;33.00;87.80;;;;;;5059505;28;20184;-72
2022/07/18 11:45:10;;;;;;;1318.18;999.90;;;33.00;86.60;;;;;;5076721;28;20219;-73
2022/07/18 11:47:53;;;;;;;1325.82;999.90;;;33.00;88.90;;;;;;5075243;28;20187;-73
2022/07/18 11:50:34;;;;;;;1322.40;999.90;;;33.00;89.10;;;;;;5063832;28;20212;-73
2022/07/18 11:53:00;;;;;;;1326.43;999.90;;;33.20;90.10;;;;;;5076540;28;20697;-74
2022/07/18 11:55:36;;;;;;;1321.75;999.90;;;33.20;87.00;;;;;;5062895;28;20192;-73
2022/07/18 11:58:13;;;;;;;1322.93;999.90;;;33.30;87.50;;;;;;5085869;28;20188;-74
2022/07/18 12:00:41;;;;;;;1321.15;999.90;;;33.40;88.20;;;;;;5077583;28;20629;-73
2022/07/18 12:03:14;;;;;;;1317.60;999.90;;;33.40;87.70;;;;;;5059065;28;20312;-73
2022/07/18 12:05:41;;;;;;;1316.95;999.90;;;33.40;86.50;;;;;;5069915;28;20220;-73
2022/07/18 12:08:26;;;;;;;1317.13;999.90;;;33.30;85.70;;;;;;5080597;28;20203;-73
2022/07/18 12:11:25;;;;;;;1319.57;999.90;;;33.10;86.30;;;;;;5083151;28;20237;-73